createdAt,value
2019-06-08T00:01:12.178Z,80.75
2019-06-08T00:03:40.705Z,80.67
2019-06-08T00:06:09.105Z,80.71
2019-06-08T00:08:37.542Z,81.20
2019-06-08T00:11:06.908Z,80.76
2019-06-08T00:13:35.315Z,80.35
2019-06-08T00:16:04.709Z,80.63
2019-06-08T00:18:33.212Z,81.24
2019-06-08T00:21:01.653Z,81.14
2019-06-08T00:23:30.058Z,80.77
2019-06-08T00:25:58.465Z,80.82
2019-06-08T00:28:26.898Z,80.18
2019-06-08T00:31:02.063Z,80.91
2019-06-08T00:33:32.425Z,81.40
2019-06-08T00:36:01.748Z,81.33
2019-06-08T00:38:34.059Z,81.18
2019-06-08T00:41:04.114Z,80.99
2019-06-08T00:43:32.539Z,80.40
2019-06-08T00:46:00.942Z,80.84
2019-06-08T00:48:31.761Z,80.51
2019-06-08T00:51:00.168Z,80.95
2019-06-08T00:53:32.752Z,80.16
2019-06-08T00:56:01.202Z,79.33
2019-06-08T00:58:32.044Z,79.57
2019-06-08T01:01:01.573Z,80.53
2019-06-08T01:03:32.371Z,79.34
2019-06-08T01:06:01.893Z,79.70
2019-06-08T01:08:30.288Z,80.42
2019-06-08T01:10:58.691Z,80.54
2019-06-08T01:13:27.116Z,80.26
2019-06-08T01:15:56.693Z,80.29
2019-06-08T01:18:25.902Z,79.58
2019-06-08T01:21:08.128Z,79.19
2019-06-08T01:23:39.047Z,79.68
2019-06-08T01:26:07.457Z,80.03
2019-06-08T01:28:35.871Z,78.64
2019-06-08T01:31:04.306Z,79.37
2019-06-08T01:33:35.124Z,78.28
2019-06-08T01:36:03.515Z,78.97
2019-06-08T01:38:34.028Z,79.56
2019-06-08T01:41:02.452Z,79.82
2019-06-08T01:43:34.725Z,80.14
2019-06-08T01:46:04.119Z,78.87
2019-06-08T01:48:32.523Z,78.26
2019-06-08T01:51:24.554Z,79.21
2019-06-08T01:53:33.080Z,80.09
2019-06-08T01:56:01.408Z,78.42
2019-06-08T01:58:31.449Z,77.25
2019-06-08T02:01:01.340Z,76.74
2019-06-08T02:03:30.256Z,77.02
2019-06-08T02:06:06.481Z,77.39
2019-06-08T02:08:34.863Z,78.71
2019-06-08T02:11:03.387Z,79.38
2019-06-08T02:13:39.840Z,79.13
2019-06-08T02:16:14.388Z,79.31
2019-06-08T02:18:50.846Z,79.24
2019-06-08T02:21:17.482Z,78.09
2019-06-08T02:23:45.875Z,77.69
2019-06-08T02:26:17.347Z,77.90
2019-06-08T02:28:48.619Z,78.06
2019-06-08T02:31:24.056Z,79.70
2019-06-08T02:33:57.643Z,79.27
2019-06-08T02:36:31.576Z,79.41
2019-06-08T02:39:15.022Z,79.12
2019-06-08T02:41:43.453Z,78.57
2019-06-08T02:44:16.027Z,78.07
2019-06-08T02:46:47.755Z,77.82
2019-06-08T02:49:22.604Z,79.17
2019-06-08T02:52:04.228Z,79.52
2019-06-08T02:54:41.304Z,79.29
2019-06-08T02:57:19.098Z,78.80
2019-06-08T02:59:49.641Z,78.71
2019-06-08T03:02:19.898Z,77.57
2019-06-08T03:04:58.862Z,78.58
2019-06-08T03:07:30.346Z,78.98
2019-06-08T03:09:57.639Z,78.63
2019-06-08T03:12:27.473Z,79.02
2019-06-08T03:14:55.854Z,77.68
2019-06-08T03:17:26.847Z,77.89
2019-06-08T03:20:02.328Z,78.52
2019-06-08T03:22:32.051Z,78.53
2019-06-08T03:25:03.123Z,79.71
2019-06-08T03:27:37.308Z,78.70
2019-06-08T03:30:17.742Z,78.27
2019-06-08T03:32:50.642Z,78.83
2019-06-08T03:35:12.867Z,78.39
2019-06-08T03:37:42.976Z,79.34
2019-06-08T03:40:13.865Z,78.76
2019-06-08T03:42:41.881Z,77.83
2019-06-08T03:45:14.412Z,78.47
2019-06-08T03:47:43.987Z,77.49
2019-06-08T03:50:13.215Z,77.97
2019-06-08T03:52:42.077Z,77.52
2019-06-08T03:55:15.796Z,78.28
2019-06-08T03:57:44.071Z,79.01
2019-06-08T04:00:15.926Z,77.87
2019-06-08T04:02:46.653Z,77.37
2019-06-08T04:05:18.697Z,78.67
2019-06-08T04:07:47.097Z,78.20
2019-06-08T04:10:16.328Z,79.04
2019-06-08T04:12:46.155Z,78.24
2019-06-08T04:15:17.165Z,77.91
2019-06-08T04:17:48.144Z,78.30
2019-06-08T04:20:20.957Z,79.12
2019-06-08T04:22:50.563Z,78.74
2019-06-08T04:25:20.061Z,78.67
2019-06-08T04:27:48.465Z,77.81
2019-06-08T04:30:17.481Z,77.78
2019-06-08T04:32:47.575Z,77.23
2019-06-08T04:35:16.203Z,77.58
2019-06-08T04:37:52.296Z,78.01
2019-06-08T04:40:20.885Z,77.27
2019-06-08T04:42:50.954Z,76.90
2019-06-08T04:45:20.948Z,77.79
2019-06-08T04:47:50.280Z,76.87
2019-06-08T04:50:23.448Z,76.63
2019-06-08T04:52:57.306Z,77.06
2019-06-08T04:55:25.363Z,77.66
2019-06-08T04:57:53.035Z,77.68
2019-06-08T05:00:28.828Z,77.49
2019-06-08T05:02:55.168Z,76.78
2019-06-08T05:05:39.162Z,77.54
2019-06-08T05:08:04.613Z,77.53
2019-06-08T05:10:32.947Z,74.96
2019-06-08T05:13:04.952Z,74.22
2019-06-08T05:15:33.393Z,71.41
2019-06-08T05:18:02.836Z,69.13
2019-06-08T05:20:38.991Z,68.89
2019-06-08T05:23:11.049Z,69.88
2019-06-08T05:25:47.321Z,70.41
2019-06-08T05:28:20.385Z,70.83
2019-06-08T05:30:52.723Z,69.77
2019-06-08T05:33:21.142Z,70.84
2019-06-08T05:35:49.828Z,71.26
2019-06-08T05:38:21.170Z,70.97
2019-06-08T05:40:49.903Z,69.10
2019-06-08T05:43:19.579Z,70.90
2019-06-08T05:45:51.402Z,70.28
2019-06-08T05:48:22.287Z,68.08
2019-06-08T05:51:03.112Z,64.69
2019-06-08T05:53:43.839Z,60.40
2019-06-08T05:56:17.798Z,57.53
2019-06-08T05:58:51.041Z,55.80
2019-06-08T06:01:20.494Z,54.66
2019-06-08T06:03:53.121Z,52.99
2019-06-08T06:06:26.463Z,54.55
2019-06-08T06:09:00.401Z,56.16
2019-06-08T06:11:28.810Z,60.04
2019-06-08T06:14:01.218Z,59.93
2019-06-08T06:16:29.003Z,62.00
2019-06-08T06:18:58.423Z,62.48
2019-06-08T06:21:30.755Z,63.74
2019-06-08T06:24:02.865Z,62.35
2019-06-08T06:26:33.235Z,63.28
2019-06-08T06:29:02.877Z,62.81
2019-06-08T06:31:35.293Z,65.10
2019-06-08T06:34:09.450Z,63.17
2019-06-08T06:36:43.921Z,61.89
2019-06-08T06:39:12.327Z,65.43
2019-06-08T06:41:54.497Z,63.23
2019-06-08T06:44:47.484Z,62.77
2019-06-08T06:47:16.873Z,61.61
2019-06-08T06:49:48.423Z,58.12
2019-06-08T06:52:16.791Z,54.43
2019-06-08T06:54:45.195Z,54.02
2019-06-08T06:57:16.094Z,51.92
2019-06-08T06:59:45.667Z,47.34
2019-06-08T07:02:18.117Z,47.46
2019-06-08T07:04:47.992Z,46.77
2019-06-08T07:07:20.829Z,48.04
2019-06-08T07:09:50.444Z,46.37
2019-06-08T07:12:19.081Z,46.20
2019-06-08T07:14:51.363Z,47.97
2019-06-08T07:17:23.986Z,48.65
2019-06-08T07:19:52.684Z,45.91
2019-06-08T07:22:22.100Z,44.05
2019-06-08T07:24:54.639Z,42.55
2019-06-08T07:27:28.052Z,42.51
2019-06-08T07:29:59.065Z,40.55
2019-06-08T07:32:32.378Z,38.99
2019-06-08T07:35:07.235Z,38.27
2019-06-08T07:37:38.990Z,37.93
2019-06-08T07:40:07.545Z,36.16
2019-06-08T07:42:36.924Z,35.60
2019-06-08T07:45:06.654Z,37.35
2019-06-08T07:47:41.365Z,35.90
2019-06-08T07:50:19.128Z,35.99
2019-06-08T07:52:52.854Z,35.71
2019-06-08T07:55:21.296Z,37.45
2019-06-08T07:57:50.482Z,36.20
2019-06-08T08:00:24.290Z,35.82
2019-06-08T08:03:04.892Z,35.92
2019-06-08T08:05:34.365Z,37.78
2019-06-08T08:08:10.917Z,39.24
2019-06-08T08:10:39.312Z,39.12
2019-06-08T08:13:17.970Z,41.02
2019-06-08T08:15:50.788Z,41.46
2019-06-08T08:18:22.068Z,45.34
2019-06-08T08:20:51.095Z,46.45
2019-06-08T08:23:23.529Z,47.16
2019-06-08T08:25:51.473Z,48.51
2019-06-08T08:28:19.939Z,47.71
2019-06-08T08:30:52.740Z,50.87
2019-06-08T08:33:21.185Z,49.26
2019-06-08T08:35:51.025Z,51.42
2019-06-08T08:38:19.953Z,51.84
2019-06-08T08:40:51.108Z,50.35
2019-06-08T08:43:24.665Z,50.91
2019-06-08T08:45:59.151Z,50.94
2019-06-08T08:48:31.725Z,53.45
2019-06-08T08:51:03.050Z,49.07
2019-06-08T08:53:38.689Z,47.41
2019-06-08T08:56:07.455Z,48.61
2019-06-08T08:58:43.784Z,47.21
2019-06-08T09:01:20.592Z,48.98
2019-06-08T09:03:48.163Z,51.72
2019-06-08T09:06:18.233Z,50.60
2019-06-08T09:08:52.029Z,51.86
2019-06-08T09:11:20.021Z,51.49
2019-06-08T09:13:52.398Z,51.53
2019-06-08T09:16:21.135Z,51.00
2019-06-08T09:18:59.337Z,50.05
2019-06-08T09:21:28.077Z,50.32
2019-06-08T09:23:58.828Z,49.34
2019-06-08T09:26:31.432Z,49.83
2019-06-08T09:29:01.091Z,50.27
2019-06-08T09:31:30.887Z,49.31
2019-06-08T09:34:11.037Z,49.87
2019-06-08T09:36:40.805Z,49.35
2019-06-08T09:39:12.582Z,50.65
2019-06-08T09:41:47.986Z,49.16
2019-06-08T09:44:18.475Z,46.07
2019-06-08T09:46:48.060Z,48.23
2019-06-08T09:49:18.801Z,47.28
2019-06-08T09:51:48.976Z,47.40
2019-06-08T09:54:20.753Z,47.31
2019-06-08T09:56:53.700Z,48.46
2019-06-08T09:59:32.152Z,46.56
2019-06-08T10:02:07.488Z,46.84
2019-06-08T10:04:34.814Z,47.83
2019-06-08T10:07:08.804Z,47.47
2019-06-08T10:09:43.470Z,47.48
2019-06-08T10:12:18.353Z,46.93
2019-06-08T10:17:43.651Z,46.42
2019-06-08T10:20:18.338Z,45.82
2019-06-08T10:22:50.028Z,45.92
2019-06-08T10:25:28.647Z,44.90
2019-06-08T10:28:10.231Z,44.65
2019-06-08T10:30:38.413Z,45.23
2019-06-08T10:33:20.663Z,47.69
2019-06-08T10:35:55.629Z,46.04
2019-06-08T10:38:31.322Z,45.59
2019-06-08T10:41:19.254Z,46.07
2019-06-08T10:43:48.040Z,46.49
2019-06-08T10:46:19.920Z,47.45
2019-06-08T10:48:48.752Z,46.52
2019-06-08T10:51:26.178Z,46.48
2019-06-08T10:54:02.201Z,45.26
2019-06-08T10:56:43.979Z,46.49
2019-06-08T10:59:18.540Z,46.93
2019-06-08T11:01:47.193Z,46.41
2019-06-08T11:04:28.495Z,47.92
2019-06-08T11:07:00.220Z,46.27
2019-06-08T11:09:28.506Z,48.83
2019-06-08T11:12:14.619Z,48.29
2019-06-08T11:14:40.821Z,46.47
2019-06-08T11:17:27.915Z,46.93
2019-06-08T11:20:00.963Z,48.22
2019-06-08T11:22:30.958Z,49.63
2019-06-08T11:25:08.730Z,47.38
2019-06-08T11:27:38.632Z,45.89
2019-06-08T11:30:14.264Z,46.57
2019-06-08T11:32:41.762Z,46.59
2019-06-08T11:35:12.586Z,45.63
2019-06-08T11:37:42.098Z,45.95
2019-06-08T11:40:13.517Z,44.87
2019-06-08T11:42:44.621Z,45.06
2019-06-08T11:45:27.650Z,44.31
2019-06-08T11:47:50.559Z,44.79
2019-06-08T11:50:41.501Z,44.93
2019-06-08T11:53:19.898Z,45.48
2019-06-08T11:55:51.092Z,45.65
2019-06-08T11:58:35.018Z,46.50
2019-06-08T12:01:10.003Z,46.21
2019-06-08T12:03:39.585Z,44.07
2019-06-08T12:06:09.470Z,44.36
2019-06-08T12:08:38.219Z,44.99
2019-06-08T12:11:10.658Z,44.38
2019-06-08T12:13:37.166Z,45.17
2019-06-08T12:16:14.640Z,45.22
2019-06-08T12:18:41.004Z,44.73
2019-06-08T12:21:11.111Z,44.60
2019-06-08T12:23:49.380Z,43.81
2019-06-08T12:26:17.785Z,43.97
2019-06-08T12:28:48.478Z,42.51
2019-06-08T12:31:21.452Z,44.32
2019-06-08T12:33:48.772Z,43.94
2019-06-08T12:36:20.719Z,45.01
2019-06-08T12:38:48.658Z,46.52
2019-06-08T12:41:17.157Z,44.91
2019-06-08T12:43:47.858Z,45.35
2019-06-08T12:46:21.505Z,44.84
2019-06-08T12:48:53.720Z,46.24
2019-06-08T12:51:24.038Z,44.49
2019-06-08T12:53:52.395Z,43.00
2019-06-08T12:56:24.101Z,42.92
2019-06-08T12:58:50.993Z,41.22
2019-06-08T13:01:19.396Z,43.08
2019-06-08T13:03:48.734Z,44.16
2019-06-08T13:06:20.080Z,41.71
2019-06-08T13:08:54.859Z,42.98
2019-06-08T13:11:29.682Z,44.66
2019-06-08T13:14:04.642Z,40.59
2019-06-08T13:16:33.073Z,41.94
2019-06-08T13:19:01.509Z,40.43
2019-06-08T13:21:35.159Z,40.50
2019-06-08T13:24:00.100Z,39.02
2019-06-08T13:26:31.019Z,41.38
2019-06-08T13:29:05.002Z,40.45
2019-06-08T13:31:34.411Z,41.04
2019-06-08T13:34:11.075Z,43.68
2019-06-08T13:36:43.120Z,41.08
2019-06-08T13:39:13.144Z,42.14
2019-06-08T13:41:42.981Z,42.58
2019-06-08T13:44:14.128Z,40.92
2019-06-08T13:46:43.600Z,42.05
2019-06-08T13:49:14.162Z,42.72
2019-06-08T13:51:45.443Z,42.08
2019-06-08T13:54:19.958Z,42.98
2019-06-08T13:56:58.765Z,41.46
2019-06-08T13:59:33.256Z,40.69
2019-06-08T14:02:04.368Z,41.64
2019-06-08T14:04:39.680Z,40.90
2019-06-08T14:07:08.915Z,42.08
2019-06-08T14:09:47.928Z,44.98
2019-06-08T14:12:24.030Z,42.77
2019-06-08T14:14:58.396Z,42.03
2019-06-08T14:17:27.956Z,42.69
2019-06-08T14:20:04.255Z,43.15
2019-06-08T14:22:34.329Z,43.77
2019-06-08T14:25:10.518Z,44.42
2019-06-08T14:27:44.153Z,43.42
2019-06-08T14:30:23.742Z,43.02
2019-06-08T14:32:52.247Z,42.95
2019-06-08T14:35:22.659Z,42.58
2019-06-08T14:37:51.274Z,42.72
2019-06-08T14:40:28.499Z,42.96
2019-06-08T14:42:58.110Z,42.34
2019-06-08T14:45:30.960Z,41.44
2019-06-08T14:48:02.898Z,42.22
2019-06-08T14:50:31.439Z,44.15
2019-06-08T14:53:01.315Z,42.00
2019-06-08T14:55:49.975Z,41.43
2019-06-08T14:58:24.068Z,42.66
2019-06-08T15:00:52.100Z,42.56
2019-06-08T15:03:21.206Z,41.41
2019-06-08T15:05:49.948Z,41.26
2019-06-08T15:08:19.530Z,42.09
2019-06-08T15:10:50.352Z,41.94
2019-06-08T15:13:18.957Z,41.02
2019-06-08T15:15:48.747Z,39.63
2019-06-08T15:18:39.265Z,41.32
2019-06-08T15:21:00.404Z,41.43
2019-06-08T15:23:31.090Z,40.20
2019-06-08T15:25:58.938Z,40.20
2019-06-08T15:28:31.556Z,41.13
2019-06-08T15:30:59.895Z,41.03
2019-06-08T15:33:31.041Z,41.00
2019-06-08T15:36:01.832Z,39.99
2019-06-08T15:38:32.360Z,40.71
2019-06-08T15:41:03.011Z,40.90
2019-06-08T15:43:40.219Z,41.05
2019-06-08T15:46:08.459Z,42.26
2019-06-08T15:48:38.175Z,41.39
2019-06-08T15:51:10.205Z,40.82
2019-06-08T15:53:40.376Z,40.66
2019-06-08T15:56:08.885Z,41.42
2019-06-08T15:58:40.379Z,41.49
2019-06-08T16:01:17.019Z,41.00
2019-06-08T16:03:45.458Z,41.59
2019-06-08T16:06:13.864Z,40.89
2019-06-08T16:08:44.313Z,41.46
2019-06-08T16:11:12.767Z,41.55
2019-06-08T16:13:42.181Z,40.99
2019-06-08T16:16:10.602Z,41.35
2019-06-08T16:18:43.208Z,41.11
2019-06-08T16:21:11.689Z,40.33
2019-06-08T16:23:42.895Z,41.26
2019-06-08T16:26:11.304Z,40.30
2019-06-08T16:28:42.158Z,40.07
2019-06-08T16:31:10.558Z,41.62
2019-06-08T16:33:39.723Z,41.22
2019-06-08T16:36:08.164Z,41.20
2019-06-08T16:38:36.738Z,40.66
2019-06-08T16:41:07.294Z,41.68
2019-06-08T16:43:35.320Z,41.15
2019-06-08T16:46:08.746Z,41.26
2019-06-08T16:48:39.419Z,41.09
2019-06-08T16:51:13.501Z,42.36
2019-06-08T16:53:41.900Z,42.21
2019-06-08T16:56:17.845Z,42.26
2019-06-08T16:58:47.344Z,43.06
2019-06-08T17:01:20.899Z,42.41
2019-06-08T17:03:50.359Z,41.88
2019-06-08T17:06:21.336Z,41.80
2019-06-08T17:08:55.841Z,43.17
2019-06-08T17:11:24.032Z,43.09
2019-06-08T17:13:52.466Z,43.17
2019-06-08T17:16:20.949Z,42.56
2019-06-08T17:18:49.380Z,42.21
2019-06-08T17:21:20.486Z,44.53
2019-06-08T17:23:48.904Z,45.15
2019-06-08T17:26:17.336Z,46.06
2019-06-08T17:28:45.747Z,45.98
2019-06-08T17:31:14.194Z,46.15
2019-06-08T17:33:42.586Z,45.08
2019-06-08T17:36:14.848Z,46.80
2019-06-08T17:38:47.924Z,46.70
2019-06-08T17:41:16.325Z,47.90
2019-06-08T17:43:44.727Z,47.28
2019-06-08T17:46:13.153Z,48.11
2019-06-08T17:48:42.822Z,46.86
2019-06-08T17:51:11.318Z,47.84
2019-06-08T17:53:41.030Z,46.95
2019-06-08T17:56:09.389Z,46.52
2019-06-08T17:58:37.797Z,46.61
2019-06-08T18:01:06.228Z,46.74
2019-06-08T18:03:36.093Z,46.37
2019-06-08T18:06:07.272Z,46.21
2019-06-08T18:08:38.447Z,48.24
2019-06-08T18:11:07.908Z,47.25
2019-06-08T18:13:39.083Z,47.22
2019-06-08T18:16:08.294Z,46.61
2019-06-08T18:18:39.206Z,47.01
2019-06-08T18:21:08.149Z,47.29
2019-06-08T18:23:39.962Z,47.30
2019-06-08T18:26:07.702Z,48.61
2019-06-08T18:28:42.385Z,48.43
2019-06-08T18:31:11.220Z,48.85
2019-06-08T18:33:41.692Z,50.77
2019-06-08T18:36:09.754Z,49.55
2019-06-08T18:38:40.833Z,51.45
2019-06-08T18:41:08.399Z,50.30
2019-06-08T18:43:39.563Z,49.17
2019-06-08T18:46:10.904Z,48.94
2019-06-08T18:48:41.779Z,52.43
2019-06-08T18:51:13.451Z,51.41
2019-06-08T18:54:01.814Z,51.62
2019-06-08T18:56:12.007Z,52.04
2019-06-08T18:58:42.151Z,51.75
2019-06-08T19:01:21.527Z,52.31
2019-06-08T19:03:47.983Z,51.98
2019-06-08T19:06:18.736Z,51.89
2019-06-08T19:08:49.358Z,53.05
2019-06-08T19:11:19.284Z,54.27
2019-06-08T19:13:54.264Z,53.79
2019-06-08T19:16:22.674Z,53.78
2019-06-08T19:18:53.839Z,53.94
2019-06-08T19:21:22.258Z,55.19
2019-06-08T19:23:51.584Z,54.03
2019-06-08T19:26:22.430Z,54.75
2019-06-08T19:28:54.355Z,54.44
2019-06-08T19:31:22.850Z,54.27
2019-06-08T19:33:53.358Z,54.76
2019-06-08T19:36:21.665Z,53.50
2019-06-08T19:38:54.251Z,54.96
2019-06-08T19:41:24.592Z,55.66
2019-06-08T19:43:59.084Z,56.53
2019-06-08T19:46:34.990Z,56.41
2019-06-08T19:49:17.307Z,57.76
2019-06-08T19:51:52.443Z,57.90
2019-06-08T19:54:18.649Z,58.11
2019-06-08T19:56:54.532Z,58.43
2019-06-08T19:59:22.988Z,59.63
2019-06-08T20:01:56.076Z,59.39
2019-06-08T20:04:22.596Z,59.02
2019-06-08T20:06:50.999Z,60.76
2019-06-08T20:09:19.405Z,60.07
2019-06-08T20:11:56.497Z,60.11
2019-06-08T20:14:21.410Z,59.72
2019-06-08T20:16:50.933Z,60.05
2019-06-08T20:19:19.465Z,60.59
2019-06-08T20:21:55.345Z,60.57
2019-06-08T20:24:23.767Z,59.67
2019-06-08T20:26:54.320Z,60.88
2019-06-08T20:29:23.584Z,61.35
2019-06-08T20:31:59.859Z,62.32
2019-06-08T20:34:42.343Z,62.86
2019-06-08T20:37:28.280Z,61.80
2019-06-08T20:40:10.168Z,61.31
2019-06-08T20:42:37.860Z,61.91
2019-06-08T20:45:10.283Z,61.79
2019-06-08T20:47:51.140Z,60.80
2019-06-08T20:50:22.437Z,61.65
2019-06-08T20:52:52.794Z,61.21
2019-06-08T20:55:24.087Z,61.76
2019-06-08T20:57:53.734Z,59.95
2019-06-08T21:00:26.498Z,62.19
2019-06-08T21:03:03.185Z,60.02
2019-06-08T21:05:37.529Z,59.44
2019-06-08T21:08:08.527Z,59.09
2019-06-08T21:10:39.347Z,60.28
2019-06-08T21:13:17.993Z,59.36
2019-06-08T21:15:52.641Z,58.63
2019-06-08T21:18:24.611Z,58.94
2019-06-08T21:21:02.377Z,57.33
2019-06-08T21:23:34.946Z,58.31
2019-06-08T21:26:19.773Z,58.21
2019-06-08T21:28:51.261Z,58.20
2019-06-08T21:31:18.351Z,57.43
2019-06-08T21:33:49.106Z,56.73
2019-06-08T21:36:18.265Z,57.65
2019-06-08T21:38:50.295Z,56.90
2019-06-08T21:41:19.500Z,58.48
2019-06-08T21:43:53.045Z,57.27
2019-06-08T21:46:27.514Z,57.15
2019-06-08T21:48:59.153Z,56.98
2019-06-08T21:51:26.964Z,58.51
2019-06-08T21:54:00.464Z,57.89
2019-06-08T21:56:29.207Z,58.16
2019-06-08T21:59:01.140Z,58.96
2019-06-08T22:01:34.852Z,58.95
2019-06-08T22:04:03.419Z,58.43
2019-06-08T22:06:37.340Z,58.56
2019-06-08T22:09:14.051Z,58.81
2019-06-08T22:11:47.123Z,58.37
2019-06-08T22:14:21.172Z,59.17
2019-06-08T22:16:55.568Z,58.82
2019-06-08T22:19:27.583Z,57.56
2019-06-08T22:22:08.335Z,58.70
2019-06-08T22:24:41.156Z,58.69
2019-06-08T22:27:09.551Z,60.09
2019-06-08T22:29:41.648Z,59.33
2019-06-08T22:32:12.460Z,58.69
2019-06-08T22:34:47.926Z,58.57
2019-06-08T22:37:25.612Z,58.34
2019-06-08T22:40:10.897Z,58.96
2019-06-08T22:42:48.096Z,58.36
2019-06-08T22:45:17.788Z,59.94
2019-06-08T22:47:47.840Z,58.68
2019-06-08T22:50:18.548Z,58.50
2019-06-08T22:52:53.527Z,59.32
2019-06-08T22:55:27.605Z,58.84
2019-06-08T22:58:01.421Z,58.57
2019-06-08T23:00:50.848Z,58.72
2019-06-08T23:03:05.440Z,58.40
2019-06-08T23:05:36.028Z,59.31
2019-06-08T23:08:06.252Z,59.21
2019-06-08T23:10:34.565Z,58.87
2019-06-08T23:13:04.348Z,58.77
2019-06-08T23:15:33.145Z,58.04
2019-06-08T23:18:06.642Z,58.15
2019-06-08T23:20:39.251Z,56.75
2019-06-08T23:23:11.623Z,58.34
2019-06-08T23:25:40.992Z,58.03
2019-06-08T23:28:10.006Z,58.76
2019-06-08T23:30:40.574Z,56.99
2019-06-08T23:33:11.232Z,58.31
2019-06-08T23:36:07.849Z,58.21
2019-06-08T23:38:11.343Z,58.62
2019-06-08T23:40:43.733Z,59.25
2019-06-08T23:43:14.870Z,60.21
2019-06-08T23:45:44.200Z,60.06
2019-06-08T23:48:17.449Z,60.90
2019-06-08T23:50:48.075Z,60.59
2019-06-08T23:53:18.234Z,61.28
2019-06-08T23:55:50.082Z,61.09
2019-06-08T23:58:22.694Z,60.76
